Time;durP1;ratioP1;P1;durP2;ratioP2;P2;SDS_P1;SDS_P2;PMS_P1;PMS_P2;Temp;Humidity;BMP_temperature;BMP_pressure;BME280_temperature;BME280_humidity;BME280_pressure;Samples;Min_cycle;Max_cycle;Signal;HPM_P1;HPM_P2
2021/10/30 00:00:15;;;;;;;457.23;59.67;;;;;;;3.17;100.00;95508.31;1034530;28;20026;-72
2021/10/30 00:00:45;;;;;;;506.25;67.63;;;;;;;3.12;100.00;95505.56;1034909;28;20048;-72
2021/10/30 00:01:15;;;;;;;538.42;73.38;;;;;;;3.14;100.00;95500.97;1038839;28;20749;-71
2021/10/30 00:01:46;;;;;;;422.98;60.47;;;;;;;3.05;100.00;95490.94;1034607;28;20014;-73
2021/10/30 00:02:17;;;;;;;490.08;76.07;;;;;;;3.14;100.00;95499.16;1026519;28;20026;-73
2021/10/30 00:02:47;;;;;;;484.98;73.85;;;;;;;3.16;100.00;95498.97;1030575;28;20034;-71
2021/10/30 00:03:18;;;;;;;460.60;70.20;;;;;;;3.15;100.00;95499.94;1032300;28;20271;-71
2021/10/30 00:03:50;;;;;;;440.23;68.13;;;;;;;3.16;100.00;95493.78;1038659;28;20088;-72
2021/10/30 00:04:20;;;;;;;407.50;62.80;;;;;;;3.13;100.00;95487.22;1038557;28;20087;-72
2021/10/30 00:04:51;;;;;;;442.00;71.80;;;;;;;3.17;100.00;95496.13;1031438;28;20693;-72
2021/10/30 00:05:21;;;;;;;290.17;54.88;;;;;;;3.18;100.00;95494.31;1034403;28;20370;-72
2021/10/30 00:05:53;;;;;;;270.58;51.97;;;;;;;3.16;100.00;95498.97;1034300;28;20014;-70
2021/10/30 00:06:23;;;;;;;317.26;57.50;;;;;;;3.14;100.00;95503.56;1030551;28;20023;-72
2021/10/30 00:06:54;;;;;;;378.83;59.78;;;;;;;3.07;100.00;95491.47;1030381;28;20030;-73
2021/10/30 00:07:25;;;;;;;368.30;65.08;;;;;;;3.11;100.00;95498.81;1030944;28;20010;-71
2021/10/30 00:07:55;;;;;;;290.27;55.95;;;;;;;3.02;100.00;95485.41;1034994;28;20449;-71
2021/10/30 00:08:28;;;;;;;355.27;68.38;;;;;;;3.11;100.00;95491.03;1034341;28;20022;-71
2021/10/30 00:08:59;;;;;;;375.83;71.50;;;;;;;3.17;100.00;95500.53;1026580;28;20055;-71
2021/10/30 00:09:29;;;;;;;291.40;52.50;;;;;;;3.13;100.00;95496.81;1026630;28;20297;-73
2021/10/30 00:10:00;;;;;;;351.55;59.45;;;;;;;3.15;100.00;95500.72;1031926;28;20522;-72
2021/10/30 00:10:30;;;;;;;433.98;66.97;;;;;;;3.15;100.00;95499.94;1039608;28;20018;-72
2021/10/30 00:11:01;;;;;;;344.35;57.13;;;;;;;3.12;100.00;95495.19;1042832;28;20028;-72
2021/10/30 00:11:31;;;;;;;410.80;67.72;;;;;;;3.17;100.00;95495.34;1034478;28;20509;-72
2021/10/30 00:12:02;;;;;;;318.45;56.63;;;;;;;3.17;100.00;95492.75;1030613;28;20050;-72
2021/10/30 00:12:33;;;;;;;348.73;62.08;;;;;;;3.17;100.00;95495.34;1038600;28;20029;-72
2021/10/30 00:13:03;;;;;;;360.25;66.22;;;;;;;3.12;100.00;95484.84;1030641;28;20042;-72
2021/10/30 00:13:34;;;;;;;313.77;60.53;;;;;;;3.15;100.00;95484.41;1034383;28;20651;-73
2021/10/30 00:14:04;;;;;;;361.13;64.88;;;;;;;3.22;100.00;95493.69;1038758;28;20033;-71
2021/10/30 00:14:35;;;;;;;237.93;50.83;;;;;;;3.15;100.00;95485.19;1034535;28;20022;-73
2021/10/30 00:15:06;;;;;;;264.48;53.63;;;;;;;3.18;100.00;95489.13;1034310;28;20026;-72
2021/10/30 00:15:37;;;;;;;293.10;55.30;;;;;;;3.15;100.00;95494.75;1038274;28;20041;-72
2021/10/30 00:16:07;;;;;;;284.58;51.63;;;;;;;3.13;100.00;95492.41;1034528;28;20046;-74
2021/10/30 00:16:38;;;;;;;327.20;57.33;;;;;;;3.10;100.00;95492.06;1026616;28;20026;-72
2021/10/30 00:17:08;;;;;;;311.88;54.95;;;;;;;3.06;100.00;95487.31;1026692;28;20102;-71
2021/10/30 00:17:39;;;;;;;307.60;48.72;;;;;;;3.01;100.00;95487.19;1026760;28;20556;-71
2021/10/30 00:18:10;;;;;;;328.70;56.72;;;;;;;3.02;100.00;95485.41;1030738;28;20030;-70
2021/10/30 00:18:40;;;;;;;360.25;56.63;;;;;;;3.00;100.00;95487.41;1030691;28;20026;-70
2021/10/30 00:19:11;;;;;;;329.65;49.25;;;;;;;2.96;100.00;95475.91;1030395;28;20080;-72
2021/10/30 00:19:41;;;;;;;242.57;49.38;;;;;;;2.98;100.00;95485.03;1030653;28;20576;-71
2021/10/30 00:20:11;;;;;;;374.40;57.13;;;;;;;2.95;100.00;95482.91;1030511;28;20033;-73
2021/10/30 00:20:42;;;;;;;352.08;58.95;;;;;;;2.86;100.00;95460.91;1030763;28;20031;-71
2021/10/30 00:21:12;;;;;;;312.90;52.55;;;;;;;2.88;100.00;95482.16;1034656;28;20029;-72
2021/10/30 00:21:43;;;;;;;297.98;49.28;;;;;;;2.90;100.00;95481.97;1034662;28;20389;-73
2021/10/30 00:22:13;;;;;;;335.40;50.55;;;;;;;2.85;100.00;95480.03;1034616;28;20026;-72
2021/10/30 00:22:44;;;;;;;314.08;50.28;;;;;;;2.81;100.00;95471.13;1034712;28;20396;-71
2021/10/30 00:23:14;;;;;;;286.13;47.38;;;;;;;2.85;100.00;95474.88;1034602;28;20038;-71
2021/10/30 00:23:45;;;;;;;228.73;42.17;;;;;;;2.83;100.00;95477.66;1039396;28;20492;-72
2021/10/30 00:24:15;;;;;;;325.38;50.22;;;;;;;2.81;100.00;95476.28;1034505;28;20041;-72
2021/10/30 00:24:46;;;;;;;273.33;48.00;;;;;;;2.79;100.00;95481.72;1034665;28;20022;-71
2021/10/30 00:25:17;;;;;;;357.00;58.60;;;;;;;2.83;100.00;95482.84;1029970;28;20038;-71
2021/10/30 00:25:47;;;;;;;288.16;49.30;;;;;;;2.80;100.00;95477.31;1030381;28;20277;-71
2021/10/30 00:26:17;;;;;;;263.38;51.88;;;;;;;2.86;100.00;95483.44;1026457;28;20429;-72
2021/10/30 00:26:49;;;;;;;361.08;62.25;;;;;;;2.85;100.00;95485.22;1030673;28;20109;-71
2021/10/30 00:27:19;;;;;;;357.72;57.88;;;;;;;2.80;100.00;95477.31;1034595;28;20030;-71
2021/10/30 00:27:50;;;;;;;356.83;60.17;;;;;;;2.80;100.00;95485.88;1030979;28;20433;-72
2021/10/30 00:28:20;;;;;;;377.70;64.63;;;;;;;2.81;100.00;95494.44;1026453;28;20445;-71
2021/10/30 00:28:51;;;;;;;362.63;62.17;;;;;;;2.86;100.00;95486.81;1027914;28;20072;-71
2021/10/30 00:29:21;;;;;;;208.80;46.67;;;;;;;2.82;100.00;95475.31;1026484;28;20035;-72
2021/10/30 00:29:55;;;;;;;317.73;52.40;;;;;;;2.85;100.00;95485.22;1026755;28;20083;-72
2021/10/30 00:30:25;;;;;;;395.82;64.98;;;;;;;2.92;100.00;95491.09;1032201;28;20139;-71
2021/10/30 00:30:56;;;;;;;294.10;58.15;;;;;;;2.95;100.00;95482.09;1034626;28;20549;-71
2021/10/30 00:31:26;;;;;;;249.57;51.75;;;;;;;2.91;100.00;95476.56;1026820;28;20046;-73
2021/10/30 00:31:57;;;;;;;344.35;58.50;;;;;;;2.89;100.00;95470.81;1031099;28;20022;-71
2021/10/30 00:32:27;;;;;;;401.20;66.45;;;;;;;2.93;100.00;95477.13;1030435;28;20129;-71
2021/10/30 00:32:57;;;;;;;234.77;47.78;;;;;;;2.98;100.00;95479.84;1030823;28;20038;-74
2021/10/30 00:33:28;;;;;;;343.77;58.25;;;;;;;2.95;100.00;95480.31;1030468;28;20029;-71
2021/10/30 00:33:58;;;;;;;297.40;55.47;;;;;;;2.95;100.00;95482.91;1030637;28;20037;-71
2021/10/30 00:34:29;;;;;;;386.10;64.13;;;;;;;2.93;100.00;95474.53;1038742;28;20026;-70
2021/10/30 00:34:59;;;;;;;232.27;47.97;;;;;;;2.89;100.00;95470.03;1038892;28;20034;-72
2021/10/30 00:35:30;;;;;;;272.60;51.95;;;;;;;2.92;100.00;95470.38;1033605;28;20034;-71
2021/10/30 00:36:00;;;;;;;389.42;60.17;;;;;;;2.91;100.00;95468.78;1030520;28;20030;-71
2021/10/30 00:36:30;;;;;;;327.88;59.03;;;;;;;2.95;100.00;95477.72;1034483;28;20030;-72
2021/10/30 00:37:01;;;;;;;312.15;53.92;;;;;;;2.92;100.00;95478.16;1034564;28;20049;-72
2021/10/30 00:37:32;;;;;;;235.77;50.33;;;;;;;2.96;100.00;95475.91;1026383;28;20043;-71
2021/10/30 00:38:02;;;;;;;339.02;59.08;;;;;;;2.97;100.00;95475.69;1026755;28;20518;-71
2021/10/30 00:38:33;;;;;;;379.73;60.63;;;;;;;2.94;100.00;95481.28;1030574;28;20030;-72
2021/10/30 00:39:03;;;;;;;351.85;57.83;;;;;;;2.95;100.00;95474.31;1033112;28;20092;-73
2021/10/30 00:39:39;;;;;;;339.90;59.40;;;;;;;2.85;100.00;95469.69;1038864;28;20025;-73
2021/10/30 00:40:11;;;;;;;255.62;53.22;;;;;;;2.96;100.00;95476.69;1034623;28;20048;-71
2021/10/30 00:40:42;;;;;;;260.90;50.66;;;;;;;2.91;100.00;95479.16;1031272;28;20524;-72
2021/10/30 00:41:12;;;;;;;237.73;49.53;;;;;;;2.92;100.00;95483.34;1030668;28;20033;-71
2021/10/30 00:41:47;;;;;;;315.35;54.15;;;;;;;2.92;100.00;95485.13;1031830;28;20077;-71
2021/10/30 00:42:18;;;;;;;284.10;48.18;;;;;;;2.89;100.00;95483.78;1034337;28;20054;-72
2021/10/30 00:42:48;;;;;;;308.33;50.72;;;;;;;2.86;100.00;95479.03;1039953;28;20498;-71
2021/10/30 00:43:19;;;;;;;338.30;55.53;;;;;;;2.81;100.00;95481.47;1038683;28;20031;-71
2021/10/30 00:43:50;;;;;;;384.48;58.50;;;;;;;2.82;100.00;95475.31;1030624;28;20469;-73
2021/10/30 00:44:20;;;;;;;347.27;62.50;;;;;;;2.87;100.00;95477.22;1031243;28;20049;-70
2021/10/30 00:44:53;;;;;;;293.28;54.40;;;;;;;2.88;100.00;95478.78;1031175;28;20077;-70
2021/10/30 00:45:27;;;;;;;308.40;54.60;;;;;;;2.84;100.00;95479.22;1035009;28;20126;-73
2021/10/30 00:45:57;;;;;;;400.27;66.00;;;;;;;2.87;100.00;95478.00;1039869;28;20036;-72
2021/10/30 00:46:28;;;;;;;258.02;54.00;;;;;;;2.89;100.00;95470.81;1046912;28;20474;-72
2021/10/30 00:46:58;;;;;;;252.68;52.30;;;;;;;2.86;100.00;95466.06;1043590;28;20025;-72
2021/10/30 00:47:29;;;;;;;243.68;56.03;;;;;;;2.93;100.00;95474.53;1038801;28;20097;-71
2021/10/30 00:47:59;;;;;;;309.25;61.38;;;;;;;2.96;100.00;95471.50;1031309;28;20071;-71
2021/10/30 00:48:29;;;;;;;275.77;58.42;;;;;;;2.97;100.00;95470.50;1030367;28;20493;-71
2021/10/30 00:49:00;;;;;;;243.35;51.60;;;;;;;2.98;100.00;95469.47;1034854;28;20038;-72
2021/10/30 00:49:32;;;;;;;297.90;55.67;;;;;;;3.03;100.00;95467.03;1039006;28;20192;-73
2021/10/30 00:50:03;;;;;;;244.84;53.76;;;;;;;3.01;100.00;95469.03;1042617;28;20104;-72
2021/10/30 00:50:33;;;;;;;243.42;50.28;;;;;;;2.93;100.00;95460.81;1043326;28;20051;-72
2021/10/30 00:51:05;;;;;;;294.58;54.15;;;;;;;2.88;100.00;95455.47;1043023;28;20079;-70
2021/10/30 00:51:36;;;;;;;297.18;51.72;;;;;;;2.90;100.00;95462.03;1034557;28;20021;-71
2021/10/30 00:52:07;;;;;;;288.28;55.48;;;;;;;2.90;100.00;95467.22;1034757;28;20038;-70
2021/10/30 00:52:38;;;;;;;320.60;54.58;;;;;;;2.85;100.00;95446.38;1026315;28;20482;-72
2021/10/30 00:53:08;;;;;;;348.80;60.46;;;;;;;2.87;100.00;95448.72;1030641;28;20022;-73
2021/10/30 00:53:39;;;;;;;233.63;53.22;;;;;;;2.90;100.00;95451.66;1030840;28;20030;-71
2021/10/30 00:54:10;;;;;;;339.42;57.22;;;;;;;2.88;100.00;95456.25;1029336;28;20920;-72
2021/10/30 00:54:42;;;;;;;448.58;66.30;;;;;;;2.88;100.00;95458.84;1030517;28;20539;-73
2021/10/30 00:55:13;;;;;;;429.34;65.34;;;;;;;2.88;100.00;95455.47;1030141;28;20030;-73
2021/10/30 00:55:43;;;;;;;320.75;48.72;;;;;;;2.77;100.00;95444.06;1034227;28;20042;-70
2021/10/30 00:56:14;;;;;;;295.55;44.10;;;;;;;2.77;100.00;95446.66;1034654;28;20018;-73
2021/10/30 00:56:44;;;;;;;355.83;55.03;;;;;;;2.75;100.00;95446.91;1030811;28;20022;-72
2021/10/30 00:57:15;;;;;;;419.02;64.75;;;;;;;2.80;100.00;95459.19;1022637;28;20027;-72
2021/10/30 00:57:45;;;;;;;399.17;65.13;;;;;;;2.81;100.00;95465.94;1034636;28;20033;-73
2021/10/30 00:58:16;;;;;;;326.13;58.03;;;;;;;2.80;100.00;95459.19;1033339;28;20464;-72
2021/10/30 00:58:49;;;;;;;335.65;60.05;;;;;;;2.76;100.00;95452.88;1038758;28;20100;-71
2021/10/30 00:59:20;;;;;;;320.76;53.12;;;;;;;2.76;100.00;95465.81;1034688;28;20018;-72
2021/10/30 00:59:50;;;;;;;395.00;65.25;;;;;;;2.77;100.00;95463.00;1030626;28;20037;-72
2021/10/30 01:00:21;;;;;;;297.25;56.65;;;;;;;2.79;100.00;95455.00;1031473;28;20057;-71
2021/10/30 01:00:51;;;;;;;285.55;55.05;;;;;;;2.78;100.00;95451.63;1031647;28;20054;-70
2021/10/30 01:01:22;;;;;;;319.40;51.92;;;;;;;2.81;100.00;95464.13;1031575;28;20061;-73
2021/10/30 01:01:52;;;;;;;274.60;51.83;;;;;;;2.80;100.00;95457.38;1031645;28;20030;-72
2021/10/30 01:02:23;;;;;;;288.45;43.38;;;;;;;2.76;100.00;95447.69;1027381;28;20023;-73
2021/10/30 01:02:53;;;;;;;320.83;52.78;;;;;;;2.77;100.00;95454.44;1033871;28;20064;-73
2021/10/30 01:03:24;;;;;;;330.08;50.85;;;;;;;2.71;100.00;95447.53;1039550;28;20021;-70
2021/10/30 01:03:55;;;;;;;325.10;49.45;;;;;;;2.73;100.00;95451.50;1031456;28;20018;-70
2021/10/30 01:04:25;;;;;;;343.83;45.10;;;;;;;2.69;100.00;95452.94;1032610;28;20041;-73
2021/10/30 01:04:56;;;;;;;330.70;48.95;;;;;;;2.60;100.00;95436.91;1035535;28;20425;-73
2021/10/30 01:05:26;;;;;;;376.52;53.63;;;;;;;2.67;100.00;95447.19;1030733;28;20018;-71
2021/10/30 01:05:57;;;;;;;436.50;55.38;;;;;;;2.59;100.00;95445.69;1027448;28;20030;-72
2021/10/30 01:06:27;;;;;;;392.85;53.95;;;;;;;2.65;100.00;95445.81;1035566;28;20025;-71
2021/10/30 01:06:58;;;;;;;343.67;52.33;;;;;;;2.59;100.00;95450.09;1035319;28;20041;-72
2021/10/30 01:07:31;;;;;;;333.17;48.10;;;;;;;2.57;100.00;95442.53;1027426;28;20172;-72
2021/10/30 01:08:01;;;;;;;412.08;58.74;;;;;;;2.63;100.00;95450.44;1030238;28;20072;-71
2021/10/30 01:08:32;;;;;;;337.15;50.58;;;;;;;2.60;100.00;95449.88;1035589;28;20037;-72
2021/10/30 01:09:03;;;;;;;350.45;58.75;;;;;;;2.66;100.00;95450.00;1035327;28;20034;-72
2021/10/30 01:09:34;;;;;;;326.40;57.94;;;;;;;2.59;100.00;95445.69;1035129;28;20421;-72
2021/10/30 01:10:04;;;;;;;192.35;41.88;;;;;;;2.71;100.00;95455.31;1027700;28;20027;-72
2021/10/30 01:10:35;;;;;;;340.55;50.15;;;;;;;2.62;100.00;95441.88;1027895;28;20026;-71
2021/10/30 01:11:06;;;;;;;368.30;50.28;;;;;;;2.60;100.00;95447.28;1026928;28;20541;-71
2021/10/30 01:11:36;;;;;;;323.20;48.88;;;;;;;2.53;100.00;95440.59;1031407;28;20046;-70
2021/10/30 01:12:08;;;;;;;325.42;54.15;;;;;;;2.56;100.00;95440.97;1031378;28;20018;-73
2021/10/30 01:12:38;;;;;;;294.78;50.60;;;;;;;2.63;100.00;95453.81;1027449;28;20027;-73
2021/10/30 01:13:09;;;;;;;291.23;56.35;;;;;;;2.66;100.00;95450.78;1026665;28;20034;-72
2021/10/30 01:13:39;;;;;;;299.17;55.80;;;;;;;2.68;100.00;95453.16;1027653;28;20031;-72
2021/10/30 01:14:10;;;;;;;248.98;48.40;;;;;;;2.67;100.00;95441.22;1035443;28;20413;-72
2021/10/30 01:14:41;;;;;;;339.02;55.78;;;;;;;2.63;100.00;95450.44;1033449;28;20014;-71
2021/10/30 01:15:11;;;;;;;335.48;51.38;;;;;;;2.65;100.00;95451.81;1038836;28;20113;-71
2021/10/30 01:15:42;;;;;;;250.95;49.53;;;;;;;2.65;100.00;95443.22;1039355;28;20036;-72
2021/10/30 01:16:12;;;;;;;150.70;42.65;;;;;;;2.71;100.00;95452.72;1035275;28;20018;-71
2021/10/30 01:16:47;;;;;;;273.45;52.28;;;;;;;2.69;100.00;95449.56;1027390;28;20077;-71
2021/10/30 01:17:17;;;;;;;284.34;47.40;;;;;;;2.68;100.00;95453.16;1027874;28;20023;-73
2021/10/30 01:17:47;;;;;;;297.85;53.42;;;;;;;2.66;100.00;95457.78;1027188;28;20445;-72
2021/10/30 01:18:18;;;;;;;246.38;50.17;;;;;;;2.71;100.00;95455.31;1031662;28;20026;-71
2021/10/30 01:18:48;;;;;;;239.27;52.72;;;;;;;2.66;100.00;95440.44;1035784;28;20017;-72
2021/10/30 01:19:19;;;;;;;187.05;46.35;;;;;;;2.71;100.00;95448.31;1035470;28;20013;-70
2021/10/30 01:19:51;;;;;;;298.73;54.67;;;;;;;2.70;100.00;95456.31;1043593;28;20012;-74
2021/10/30 01:20:25;;;;;;;286.22;50.58;;;;;;;2.60;100.00;95457.63;1043622;28;20023;-71
2021/10/30 01:20:56;;;;;;;210.68;42.76;;;;;;;2.64;100.00;95460.56;1044515;28;20029;-73
2021/10/30 01:21:30;;;;;;;250.00;51.85;;;;;;;2.56;100.00;95461.69;1046371;28;20025;-72
2021/10/30 01:22:00;;;;;;;249.28;48.60;;;;;;;2.56;100.00;95447.94;1039590;28;20013;-71
2021/10/30 01:22:35;;;;;;;247.07;48.88;;;;;;;2.59;100.00;95465.63;1035563;28;20068;-72
2021/10/30 01:23:06;;;;;;;255.60;48.62;;;;;;;2.60;100.00;95457.63;1032081;28;20029;-71
2021/10/30 01:23:36;;;;;;;340.65;54.72;;;;;;;2.53;100.00;95458.72;1035956;28;20021;-70
2021/10/30 01:24:07;;;;;;;276.90;50.53;;;;;;;2.46;100.00;95445.88;1028139;28;20022;-74
2021/10/30 01:24:37;;;;;;;263.77;52.90;;;;;;;2.52;100.00;95463.13;1027320;28;20019;-72
2021/10/30 01:25:08;;;;;;;330.35;59.10;;;;;;;2.55;100.00;95465.28;1029913;28;20080;-70
2021/10/30 01:25:42;;;;;;;298.73;50.83;;;;;;;2.55;100.00;95462.69;1031054;28;20452;-72
2021/10/30 01:26:12;;;;;;;415.50;58.92;;;;;;;2.51;100.00;95463.34;1032366;28;20258;-72
2021/10/30 01:26:43;;;;;;;382.48;52.05;;;;;;;2.45;100.00;95459.84;1032608;28;20018;-73
2021/10/30 01:27:15;;;;;;;478.75;64.97;;;;;;;2.32;100.00;95447.03;1027884;28;20027;-71
2021/10/30 01:27:46;;;;;;;398.24;57.06;;;;;;;2.34;100.00;95447.59;1031201;28;20453;-71
2021/10/30 01:28:16;;;;;;;310.77;52.63;;;;;;;2.43;100.00;95463.66;1032122;28;20022;-72
2021/10/30 01:28:48;;;;;;;320.20;53.58;;;;;;;2.43;100.00;95461.06;1031261;28;20014;-71
2021/10/30 01:29:19;;;;;;;359.44;57.72;;;;;;;2.45;100.00;95464.19;1031319;28;20030;-71
2021/10/30 01:29:52;;;;;;;283.23;52.10;;;;;;;2.43;100.00;95461.84;1031348;28;20034;-72
2021/10/30 01:30:23;;;;;;;315.20;52.34;;;;;;;2.45;100.00;95465.00;1027972;28;20031;-72
2021/10/30 01:30:53;;;;;;;359.23;59.25;;;;;;;2.47;100.00;95465.56;1027345;28;20511;-73
2021/10/30 01:31:24;;;;;;;369.02;62.38;;;;;;;2.50;100.00;95461.75;1027323;28;20023;-72
2021/10/30 01:31:54;;;;;;;250.30;52.60;;;;;;;2.47;100.00;95449.25;1030302;28;20030;-71
2021/10/30 01:32:26;;;;;;;252.90;50.28;;;;;;;2.57;100.00;95465.84;1031418;28;20026;-72
2021/10/30 01:33:01;;;;;;;289.76;55.92;;;;;;;2.49;100.00;95448.03;1031587;28;20539;-71
2021/10/30 01:33:31;;;;;;;210.88;45.14;;;;;;;2.56;100.00;95460.88;1031099;28;20030;-71
2021/10/30 01:34:08;;;;;;;256.98;50.10;;;;;;;2.56;100.00;95460.88;1036145;28;20765;-71
2021/10/30 01:34:38;;;;;;;237.12;52.38;;;;;;;2.59;100.00;95461.25;1031319;28;20532;-71
2021/10/30 01:35:09;;;;;;;266.38;50.25;;;;;;;2.60;100.00;95462.03;1031331;28;20034;-69
2021/10/30 01:35:41;;;;;;;248.68;47.30;;;;;;;2.54;100.00;95458.50;1028094;28;20488;-72
2021/10/30 01:36:12;;;;;;;248.78;48.46;;;;;;;2.52;100.00;95459.75;1031049;28;20153;-71
2021/10/30 01:36:43;;;;;;;263.16;50.84;;;;;;;2.52;100.00;95460.53;1027049;28;20038;-72
2021/10/30 01:37:13;;;;;;;350.90;60.15;;;;;;;2.46;100.00;95460.63;1027325;28;20034;-71
2021/10/30 01:37:44;;;;;;;303.33;56.10;;;;;;;2.51;100.00;95453.75;1035567;28;20037;-72
2021/10/30 01:38:14;;;;;;;161.43;43.53;;;;;;;2.55;100.00;95449.75;1035519;28;20061;-73
2021/10/30 01:38:44;;;;;;;208.13;47.42;;;;;;;2.49;100.00;95440.25;1043490;28;20091;-72
2021/10/30 01:39:16;;;;;;;189.57;47.97;;;;;;;2.55;100.00;95449.75;1039693;28;20029;-73
2021/10/30 01:39:46;;;;;;;175.12;44.86;;;;;;;2.51;100.00;95438.22;1039599;28;20041;-71
2021/10/30 01:40:17;;;;;;;217.23;50.17;;;;;;;2.58;100.00;95438.13;1030976;28;20045;-72
2021/10/30 01:40:49;;;;;;;269.20;51.28;;;;;;;2.50;100.00;95426.28;1031436;28;20065;-70
2021/10/30 01:41:24;;;;;;;323.32;55.50;;;;;;;2.52;100.00;95434.66;1031341;28;20076;-71
2021/10/30 01:41:54;;;;;;;232.80;41.14;;;;;;;2.46;100.00;95419.97;1031276;28;20034;-73
2021/10/30 01:42:24;;;;;;;260.17;48.03;;;;;;;2.55;100.00;95441.97;1028081;28;20439;-71
2021/10/30 01:43:00;;;;;;;288.98;52.28;;;;;;;2.54;100.00;95440.38;1032011;28;20374;-71
2021/10/30 01:43:30;;;;;;;233.96;50.18;;;;;;;2.47;100.00;95421.53;1031907;28;20141;-72
2021/10/30 01:44:01;;;;;;;327.30;57.45;;;;;;;2.55;100.00;95433.41;1028052;28;20035;-72
2021/10/30 01:44:31;;;;;;;258.63;52.58;;;;;;;2.62;100.00;95439.31;1027037;28;20559;-72
2021/10/30 01:45:02;;;;;;;296.38;51.33;;;;;;;2.62;100.00;95439.31;1027450;28;20044;-71
2021/10/30 01:45:33;;;;;;;246.75;50.42;;;;;;;2.51;100.00;95427.88;1022989;28;20031;-71
2021/10/30 01:46:03;;;;;;;297.40;48.70;;;;;;;2.57;100.00;95432.16;1023586;28;20050;-71
2021/10/30 01:46:33;;;;;;;247.23;44.22;;;;;;;2.55;100.00;95434.22;1031183;28;20034;-71
2021/10/30 01:47:04;;;;;;;193.00;44.90;;;;;;;2.58;100.00;95433.78;1027243;28;20038;-71
2021/10/30 01:47:34;;;;;;;267.95;49.20;;;;;;;2.59;100.00;95431.97;1026553;28;20031;-71
2021/10/30 01:48:05;;;;;;;327.48;47.42;;;;;;;2.56;100.00;95425.41;1025089;28;20026;-71
2021/10/30 01:48:36;;;;;;;383.17;61.78;;;;;;;2.57;100.00;95424.41;1029116;28;20268;-72
2021/10/30 01:49:06;;;;;;;373.52;62.20;;;;;;;2.53;100.00;95422.47;1030821;28;20157;-72
2021/10/30 01:49:37;;;;;;;322.58;58.38;;;;;;;2.55;100.00;95418.66;1034878;28;20540;-72
2021/10/30 01:50:12;;;;;;;307.27;55.00;;;;;;;2.58;100.00;95422.59;1027230;28;20541;-72
2021/10/30 01:50:43;;;;;;;166.42;39.84;;;;;;;2.60;100.00;95416.19;1038890;28;20033;-73
2021/10/30 01:51:13;;;;;;;161.32;36.78;;;;;;;2.62;100.00;95418.59;1039153;28;20497;-71
2021/10/30 01:51:44;;;;;;;356.95;64.53;;;;;;;2.58;100.00;95418.22;1039068;28;20115;-73
2021/10/30 01:52:14;;;;;;;317.58;56.95;;;;;;;2.53;100.00;95402.56;1036791;28;20046;-72
2021/10/30 01:52:44;;;;;;;298.67;52.92;;;;;;;2.53;100.00;95409.53;1039084;28;20038;-73
2021/10/30 01:53:15;;;;;;;156.95;37.85;;;;;;;2.65;100.00;95418.16;1030972;28;20080;-72
2021/10/30 01:53:45;;;;;;;184.43;44.25;;;;;;;2.66;100.00;95411.16;1030950;28;20026;-71
2021/10/30 01:54:16;;;;;;;320.15;56.00;;;;;;;2.64;100.00;95411.38;1026867;28;20041;-70
2021/10/30 01:54:46;;;;;;;253.57;52.33;;;;;;;2.71;100.00;95419.81;1026969;28;20062;-74
2021/10/30 01:55:18;;;;;;;388.83;66.07;;;;;;;2.69;100.00;95414.09;1026343;28;20021;-70
2021/10/30 01:55:49;;;;;;;271.10;57.40;;;;;;;2.71;100.00;95421.63;1029849;28;20437;-72
2021/10/30 01:56:20;;;;;;;246.52;50.78;;;;;;;2.70;100.00;95413.06;1035101;28;20025;-72
2021/10/30 01:56:50;;;;;;;259.32;52.46;;;;;;;2.70;100.00;95409.69;1031241;28;20025;-73
2021/10/30 01:57:21;;;;;;;381.75;64.10;;;;;;;2.67;100.00;95410.13;1030755;28;20597;-72
2021/10/30 01:57:51;;;;;;;271.38;48.90;;;;;;;2.71;100.00;95411.28;1039587;28;20014;-73
2021/10/30 01:58:22;;;;;;;272.27;49.90;;;;;;;2.73;100.00;95409.25;1039248;28;20021;-73
2021/10/30 01:58:52;;;;;;;264.95;49.65;;;;;;;2.73;100.00;95404.06;1035090;28;20021;-72
2021/10/30 01:59:23;;;;;;;285.02;40.75;;;;;;;2.63;100.00;95403.81;1031364;28;20018;-72
2021/10/30 01:59:53;;;;;;;276.63;45.85;;;;;;;2.66;100.00;95408.56;1030971;28;20026;-71
2021/10/30 02:00:23;;;;;;;227.02;47.55;;;;;;;2.65;100.00;95407.78;1031290;28;20022;-71
2021/10/30 02:00:54;;;;;;;187.15;39.28;;;;;;;2.69;100.00;95403.72;1035548;28;20030;-71
2021/10/30 02:01:25;;;;;;;288.30;43.42;;;;;;;2.58;100.00;95397.50;1039051;28;20018;-71
2021/10/30 02:01:55;;;;;;;262.77;45.30;;;;;;;2.65;100.00;95406.97;1035145;28;20496;-72
2021/10/30 02:02:26;;;;;;;318.20;45.13;;;;;;;2.39;100.00;95385.63;1035368;28;20072;-71
2021/10/30 02:02:56;;;;;;;308.23;42.55;;;;;;;2.50;100.00;95405.56;1035342;28;20489;-71
2021/10/30 02:03:29;;;;;;;361.27;42.65;;;;;;;2.44;100.00;95395.31;1034856;28;20524;-73
2021/10/30 02:04:00;;;;;;;411.12;46.78;;;;;;;2.41;100.00;95406.88;1035288;28;20104;-72
2021/10/30 02:04:30;;;;;;;399.90;56.42;;;;;;;2.46;100.00;95411.44;1031230;28;20030;-69
2021/10/30 02:05:01;;;;;;;368.38;49.60;;;;;;;2.44;100.00;95406.44;1035528;28;20380;-72
2021/10/30 02:05:31;;;;;;;448.02;60.35;;;;;;;2.44;100.00;95400.47;1035289;28;20026;-73
2021/10/30 02:06:03;;;;;;;491.98;66.90;;;;;;;2.43;100.00;95404.88;1039228;28;20546;-71
2021/10/30 02:06:33;;;;;;;468.98;58.20;;;;;;;2.37;100.00;95395.38;1037917;28;20026;-71
2021/10/30 02:07:04;;;;;;;409.35;50.13;;;;;;;2.43;100.00;95407.47;1031118;28;20493;-71
2021/10/30 02:07:34;;;;;;;329.95;52.15;;;;;;;2.45;100.00;95407.22;1027302;28;20022;-72
2021/10/30 02:08:05;;;;;;;323.05;47.78;;;;;;;2.41;100.00;95406.88;1031104;28;20580;-72
2021/10/30 02:08:35;;;;;;;390.35;54.75;;;;;;;2.43;100.00;95404.88;1030478;28;20030;-72
2021/10/30 02:09:06;;;;;;;380.45;43.30;;;;;;;2.35;100.00;95397.44;1027266;28;20023;-72
2021/10/30 02:09:36;;;;;;;282.77;37.00;;;;;;;2.33;100.00;95396.84;1030964;28;20034;-72
2021/10/30 02:10:08;;;;;;;257.92;38.00;;;;;;;2.24;100.00;95387.78;1030782;28;20478;-73
2021/10/30 02:10:38;;;;;;;352.46;40.42;;;;;;;2.18;100.00;95386.88;1031109;28;20034;-71
2021/10/30 02:11:12;;;;;;;309.08;37.78;;;;;;;2.23;100.00;95401.75;1035189;28;20480;-71
2021/10/30 02:11:42;;;;;;;308.04;41.28;;;;;;;2.20;100.00;95392.63;1034066;28;20030;-71
2021/10/30 02:12:13;;;;;;;236.90;38.88;;;;;;;2.22;100.00;95397.59;1035161;28;20026;-71
2021/10/30 02:12:44;;;;;;;353.67;48.45;;;;;;;2.27;100.00;95405.47;1036846;28;20131;-72
2021/10/30 02:13:14;;;;;;;319.23;45.33;;;;;;;2.19;100.00;95398.81;1047569;28;20093;-71
2021/10/30 02:13:45;;;;;;;325.58;49.70;;;;;;;2.24;100.00;95403.31;1039040;28;20017;-72
2021/10/30 02:14:15;;;;;;;315.50;46.63;;;;;;;2.26;100.00;95403.91;1035105;28;20064;-72
2021/10/30 02:14:46;;;;;;;277.20;43.60;;;;;;;2.19;100.00;95383.28;1023009;29;20426;-71
2021/10/30 02:15:16;;;;;;;233.80;40.60;;;;;;;2.26;100.00;95404.69;1028657;28;20062;-72
2021/10/30 02:15:47;;;;;;;253.52;43.85;;;;;;;2.28;100.00;95401.88;1030858;28;20035;-72
2021/10/30 02:16:17;;;;;;;199.00;40.92;;;;;;;2.28;100.00;95401.88;1030907;28;20161;-73
2021/10/30 02:16:47;;;;;;;348.65;52.33;;;;;;;2.28;100.00;95407.88;1030809;28;20034;-71
2021/10/30 02:17:18;;;;;;;310.02;50.25;;;;;;;2.25;100.00;95412.69;1035540;28;20022;-71
2021/10/30 02:17:49;;;;;;;256.38;42.17;;;;;;;2.18;100.00;95399.81;1035052;28;20156;-72
2021/10/30 02:18:19;;;;;;;202.55;39.35;;;;;;;2.26;100.00;95415.03;1031214;28;20101;-73
2021/10/30 02:18:49;;;;;;;249.32;41.88;;;;;;;2.24;100.00;95411.09;1034667;28;20389;-71
2021/10/30 02:19:20;;;;;;;238.45;42.72;;;;;;;2.19;100.00;95396.22;1039187;28;20025;-72
2021/10/30 02:19:50;;;;;;;234.50;45.97;;;;;;;2.26;100.00;95404.69;1034894;28;20036;-71
2021/10/30 02:20:22;;;;;;;298.05;48.63;;;;;;;2.18;100.00;95401.59;1032029;28;20021;-70